Ny info om parkering ved Klubbhytta PDF Skriv ut E-post
Skrevet av Per Norgaard   
torsdag 17. desember 2015 11:11

Styret i klubben ønsker å korrigere/presisere følgende: All parkering ved Klubbhytta skal kun skje ifm klubbaktivitet. Avinor vil ikke akseptere privat parkering som ikke er klubbrelatert. Misbruk vil utløse bøter, og kan medføre oppsigelse av leieforholdet.

 

 
«StartForrige12345678NesteSiste»

Side 8 av 8
 
METAR
2021/06/15 04:20 ENCN 150420Z 24007KT 9999 SCT041 12/07 Q1015
TAF
2021/06/15 03:36 TAF TAF ENCN 150200Z 1503/1512 26008KT 9999 FEW045 TEMPO 1506/1512 27015G25KT
LN-KFK
Operativ VFR-natt
VFR dag
03:06 - 23:51
Brannvakt
Inaktiv
Banner
Banner
Banner
Banner
Banner